createdAt,value
2019-04-14T00:00:18.325Z,20.41
2019-04-14T00:01:17.312Z,20.49
2019-04-14T00:02:18.468Z,20.41
2019-04-14T00:03:17.319Z,20.47
2019-04-14T00:04:18.200Z,20.59
2019-04-14T00:05:17.195Z,20.47
2019-04-14T00:06:18.065Z,20.53
2019-04-14T00:07:17.171Z,20.51
2019-04-14T00:08:17.750Z,20.50
2019-04-14T00:09:18.272Z,20.47
2019-04-14T00:10:18.146Z,20.51
2019-04-14T00:11:17.138Z,20.58
2019-04-14T00:12:17.119Z,20.58
2019-04-14T00:13:17.460Z,20.47
2019-04-14T00:14:17.095Z,20.50
2019-04-14T00:15:25.656Z,20.53
2019-04-14T00:16:18.447Z,20.53
2019-04-14T00:17:17.267Z,20.54
2019-04-14T00:18:17.050Z,20.50
2019-04-14T00:19:17.375Z,20.54
2019-04-14T00:20:17.028Z,20.46
2019-04-14T00:21:17.284Z,20.50
2019-04-14T00:22:17.015Z,20.49
2019-04-14T00:23:17.246Z,20.56
2019-04-14T00:24:16.984Z,20.50
2019-04-14T00:25:17.430Z,20.56
2019-04-14T00:26:16.986Z,20.59
2019-04-14T00:27:17.223Z,20.56
2019-04-14T00:28:16.948Z,20.50
2019-04-14T00:29:17.339Z,20.53
2019-04-14T00:30:16.918Z,20.51
2019-04-14T00:31:17.352Z,20.51
2019-04-14T00:32:16.906Z,20.54
2019-04-14T00:33:17.018Z,20.49
2019-04-14T00:34:18.068Z,20.50
2019-04-14T00:35:16.863Z,20.49
2019-04-14T00:36:17.561Z,20.54
2019-04-14T00:37:16.851Z,20.49
2019-04-14T00:38:17.429Z,20.58
2019-04-14T00:39:16.822Z,20.46
2019-04-14T00:40:17.233Z,20.51
2019-04-14T00:41:17.919Z,20.53
2019-04-14T00:42:17.020Z,20.42
2019-04-14T00:43:17.775Z,20.50
2019-04-14T00:44:16.846Z,20.50
2019-04-14T00:45:17.664Z,20.50
2019-04-14T00:46:16.859Z,20.53
2019-04-14T00:47:17.852Z,20.51
2019-04-14T00:48:19.338Z,20.47
2019-04-14T00:49:17.873Z,20.47
2019-04-14T00:50:16.850Z,20.46
2019-04-14T00:51:17.719Z,20.50
2019-04-14T00:52:16.892Z,20.49
2019-04-14T00:53:16.664Z,20.53
2019-04-14T00:54:17.483Z,20.54
2019-04-14T00:55:16.642Z,20.53
2019-04-14T00:56:17.214Z,20.47
2019-04-14T00:57:16.640Z,20.51
2019-04-14T00:58:17.109Z,20.50
2019-04-14T00:59:17.708Z,20.43
2019-04-14T01:00:18.627Z,20.50
2019-04-14T01:01:17.549Z,20.50
2019-04-14T01:02:16.734Z,20.53
2019-04-14T01:03:17.447Z,20.49
2019-04-14T01:04:16.604Z,20.53
2019-04-14T01:05:17.420Z,20.41
2019-04-14T01:06:16.521Z,20.38
2019-04-14T01:07:17.345Z,20.50
2019-04-14T01:08:16.498Z,20.39
2019-04-14T01:09:17.255Z,20.43
2019-04-14T01:10:17.036Z,20.49
2019-04-14T01:11:16.467Z,20.47
2019-04-14T01:12:17.078Z,20.53
2019-04-14T01:13:16.442Z,20.53
2019-04-14T01:14:16.964Z,20.46
2019-04-14T01:15:16.425Z,20.50
2019-04-14T01:16:19.989Z,20.54
2019-04-14T01:17:17.712Z,20.53
2019-04-14T01:18:16.845Z,20.41
2019-04-14T01:19:17.634Z,20.49
2019-04-14T01:20:16.722Z,20.43
2019-04-14T01:21:17.388Z,20.46
2019-04-14T01:22:16.347Z,20.46
2019-04-14T01:23:17.176Z,20.56
2019-04-14T01:24:16.424Z,20.51
2019-04-14T01:25:17.124Z,20.42
2019-04-14T01:26:16.301Z,20.51
2019-04-14T01:27:16.787Z,20.46
2019-04-14T01:28:16.285Z,20.47
2019-04-14T01:29:16.605Z,20.46
2019-04-14T01:30:17.551Z,20.46
2019-04-14T01:31:16.274Z,20.53
2019-04-14T01:32:16.256Z,20.39
2019-04-14T01:33:16.317Z,20.46
2019-04-14T01:34:17.234Z,20.53
2019-04-14T01:35:16.201Z,20.43
2019-04-14T01:36:17.010Z,20.53
2019-04-14T01:37:16.176Z,20.53
2019-04-14T01:38:16.942Z,20.51
2019-04-14T01:39:16.156Z,20.31
2019-04-14T01:40:16.434Z,20.25
2019-04-14T01:41:17.060Z,20.28
2019-04-14T01:42:16.122Z,20.27
2019-04-14T01:43:16.707Z,20.20
2019-04-14T01:44:16.099Z,20.24
2019-04-14T01:45:16.510Z,20.15
2019-04-14T01:46:21.703Z,20.24
2019-04-14T01:47:18.094Z,20.30
2019-04-14T01:48:17.116Z,20.21
2019-04-14T01:49:16.047Z,20.24
2019-04-14T01:50:16.907Z,20.28
2019-04-14T01:51:16.024Z,20.38
2019-04-14T01:52:16.760Z,20.28
2019-04-14T01:53:16.163Z,20.33
2019-04-14T01:54:17.041Z,20.34
2019-04-14T01:55:15.983Z,20.34
2019-04-14T01:56:16.512Z,20.33
2019-04-14T01:57:15.958Z,20.35
2019-04-14T01:58:16.414Z,20.42
2019-04-14T01:59:15.935Z,20.39
2019-04-14T02:00:16.314Z,20.43
2019-04-14T02:01:17.059Z,20.42
2019-04-14T02:02:16.269Z,20.42
2019-04-14T02:03:17.014Z,20.33
2019-04-14T02:04:15.990Z,20.35
2019-04-14T02:05:16.813Z,20.38
